Nedre Soppero, Sweden

1:31 PM CEST on October 24, 2014 (GMT +0200)
Kiruna | Change Station
CLOSE
Current Station
Airport
Location: Kiruna,
Elevation: 1483 ft
Nearby Weather Stations

Elev 1483 ft 67.82 °N, 20.34 °E | Updated 11 minutes ago

Light Snow
Light Snow
30 °F
Feels Like 19 °F
N
15
Wind Variable Wind from South

Today
High -- | Low -- °F
--% Chance of Precip.
Yesterday
High -- | Low -- °F
Precip. -- in
8:10 AM 4:22 PM
New Moon, 0% visible
Pressure 29.77 in
Visibility 2.5 miles
Clouds
Windchill 19 °F
Dew Point 30 °F
Humidity 100%
Rainfall 0.00 in
Snow Depth Not available.
UV Not available.
Pollen Not available.
Air Quality Not available.
Flu Activity Not available.
METAR ESNQ 241120Z 17013KT 4000 -SN VV013 M01/M01 Q1008

More Conditions Fewer Conditions

Pressure 29.77 in
Visibility 2.5 miles
Clouds
Windchill 19 °F
Dew Point 30 °F
Humidity 100%
Rainfall 0.00 in
Snow Depth Not available.
UV Not available.
Pollen Not available.
Air Quality Not available.
Flu Activity Not available.
METAR ESNQ 241120Z 17013KT 4000 -SN VV013 M01/M01 Q1008

More Conditions Fewer Conditions

10-Day Weather Forecast

Almanac

Astronomy

Oct. 24, 2014 Rise Set
Actual Time 8:10 AM CEST 4:22 PM CEST
Civil Twilight 7:10 AM CEST 5:22 PM CEST
Nautical Twilight 6:04 AM CEST 6:27 PM CEST
Astronomical Twilight 4:59 AM CEST 7:32 PM CEST
Moon 8:42 AM CEST 4:31 PM CEST
Length of Visible Light 10h 12m
Length of Day
8h 11m
Tomorrow will be 8m 11s shorter.
New Moon, 0% of the Moon is Illuminated
Today
New Moon
Oct 30
First Quarter
Nov 6
Full
Nov 14
Last Quarter
Nov 22
New

Yesterday's Extremes

Country Highs Country Lows

Community

WunderPhotos

Upload Photos

1,764,525 photos uploaded!

WunderBlogs® & News

Nearby

Snow Depth

Not available.

Earthquake Activity

City Distance Mag. Time & Date
No recent earthquake activity has been reported nearby.
Minimum magnitude displayed is 2.5.

Coastal Water Temperatures

Place Temperature
No Stations Reporting

Nearby Weather Stations